sensor_id;sensor_type;location;lat;lon;timestamp;temperature;humidity
16958;DHT22;8595;52.542;11.974;2023-04-01T00:00:33;9.90;99.90
16958;DHT22;8595;52.542;11.974;2023-04-01T00:03:00;10.00;99.90
16958;DHT22;8595;52.542;11.974;2023-04-01T00:05:27;10.00;99.90
16958;DHT22;8595;52.542;11.974;2023-04-01T00:07:54;10.00;99.90
16958;DHT22;8595;52.542;11.974;2023-04-01T00:10:22;10.00;99.90
16958;DHT22;8595;52.542;11.974;2023-04-01T00:12:49;9.90;99.90
16958;DHT22;8595;52.542;11.974;2023-04-01T00:15:15;10.00;99.90
16958;DHT22;8595;52.542;11.974;2023-04-01T00:17:43;10.00;99.90
16958;DHT22;8595;52.542;11.974;2023-04-01T00:20:11;10.00;99.90
16958;DHT22;8595;52.542;11.974;2023-04-01T00:22:39;10.10;99.90
16958;DHT22;8595;52.542;11.974;2023-04-01T00:25:06;10.10;99.90
16958;DHT22;8595;52.542;11.974;2023-04-01T00:27:36;10.10;99.90
16958;DHT22;8595;52.542;11.974;2023-04-01T00:30:03;10.10;99.90
16958;DHT22;8595;52.542;11.974;2023-04-01T00:32:30;10.00;99.90
16958;DHT22;8595;52.542;11.974;2023-04-01T00:34:58;10.00;99.90
16958;DHT22;8595;52.542;11.974;2023-04-01T00:37:25;10.00;99.90
16958;DHT22;8595;52.542;11.974;2023-04-01T00:39:52;9.90;99.90
16958;DHT22;8595;52.542;11.974;2023-04-01T00:42:18;9.90;99.90
16958;DHT22;8595;52.542;11.974;2023-04-01T00:44:49;9.90;99.90
16958;DHT22;8595;52.542;11.974;2023-04-01T00:47:17;9.90;99.90
16958;DHT22;8595;52.542;11.974;2023-04-01T00:49:45;9.90;99.90
16958;DHT22;8595;52.542;11.974;2023-04-01T00:52:15;10.00;99.90
16958;DHT22;8595;52.542;11.974;2023-04-01T00:54:46;10.00;99.90
16958;DHT22;8595;52.542;11.974;2023-04-01T00:57:18;10.00;99.90
16958;DHT22;8595;52.542;11.974;2023-04-01T00:59:49;10.00;99.90
16958;DHT22;8595;52.542;11.974;2023-04-01T01:02:18;10.00;99.90
16958;DHT22;8595;52.542;11.974;2023-04-01T01:04:45;10.00;99.90
16958;DHT22;8595;52.542;11.974;2023-04-01T01:07:20;10.10;99.90
16958;DHT22;8595;52.542;11.974;2023-04-01T01:09:56;10.20;99.90
16958;DHT22;8595;52.542;11.974;2023-04-01T01:12:26;10.20;99.90
16958;DHT22;8595;52.542;11.974;2023-04-01T01:15:01;10.30;99.90
16958;DHT22;8595;52.542;11.974;2023-04-01T01:17:43;10.30;99.90
16958;DHT22;8595;52.542;11.974;2023-04-01T01:23:23;10.10;99.90
16958;DHT22;8595;52.542;11.974;2023-04-01T01:26:13;10.10;99.90
16958;DHT22;8595;52.542;11.974;2023-04-01T01:28:54;10.10;99.90
16958;DHT22;8595;52.542;11.974;2023-04-01T01:31:30;10.00;99.90
16958;DHT22;8595;52.542;11.974;2023-04-01T01:34:10;9.90;99.90
16958;DHT22;8595;52.542;11.974;2023-04-01T01:36:40;9.90;99.90
16958;DHT22;8595;52.542;11.974;2023-04-01T01:39:11;9.90;99.90
16958;DHT22;8595;52.542;11.974;2023-04-01T01:41:41;9.90;99.90
16958;DHT22;8595;52.542;11.974;2023-04-01T01:44:13;9.90;99.90
16958;DHT22;8595;52.542;11.974;2023-04-01T01:46:41;9.90;99.90
16958;DHT22;8595;52.542;11.974;2023-04-01T01:49:10;9.90;99.90
16958;DHT22;8595;52.542;11.974;2023-04-01T01:51:39;9.90;99.90
16958;DHT22;8595;52.542;11.974;2023-04-01T01:54:11;9.80;99.90
16958;DHT22;8595;52.542;11.974;2023-04-01T01:56:38;9.90;99.90
16958;DHT22;8595;52.542;11.974;2023-04-01T01:59:08;9.90;99.90
16958;DHT22;8595;52.542;11.974;2023-04-01T02:01:39;9.90;99.90
16958;DHT22;8595;52.542;11.974;2023-04-01T02:04:07;10.00;99.90
16958;DHT22;8595;52.542;11.974;2023-04-01T02:06:41;10.00;99.90
16958;DHT22;8595;52.542;11.974;2023-04-01T02:09:10;10.00;99.90
16958;DHT22;8595;52.542;11.974;2023-04-01T02:11:41;10.00;99.90
16958;DHT22;8595;52.542;11.974;2023-04-01T02:14:13;10.00;99.90
16958;DHT22;8595;52.542;11.974;2023-04-01T02:16:44;10.00;99.90
16958;DHT22;8595;52.542;11.974;2023-04-01T02:19:13;10.00;99.90
16958;DHT22;8595;52.542;11.974;2023-04-01T02:21:43;10.00;99.90
16958;DHT22;8595;52.542;11.974;2023-04-01T02:24:13;9.90;99.90
16958;DHT22;8595;52.542;11.974;2023-04-01T02:26:41;10.00;99.90
16958;DHT22;8595;52.542;11.974;2023-04-01T02:29:10;10.00;99.90
16958;DHT22;8595;52.542;11.974;2023-04-01T02:31:38;10.00;99.90
16958;DHT22;8595;52.542;11.974;2023-04-01T02:34:05;9.90;99.90
16958;DHT22;8595;52.542;11.974;2023-04-01T02:36:32;9.90;99.90
16958;DHT22;8595;52.542;11.974;2023-04-01T02:39:00;9.90;99.90
16958;DHT22;8595;52.542;11.974;2023-04-01T02:41:28;9.90;99.90
16958;DHT22;8595;52.542;11.974;2023-04-01T02:43:55;10.00;99.90
16958;DHT22;8595;52.542;11.974;2023-04-01T02:46:22;10.10;99.90
16958;DHT22;8595;52.542;11.974;2023-04-01T02:48:49;10.00;99.90
16958;DHT22;8595;52.542;11.974;2023-04-01T02:51:16;10.00;99.90
16958;DHT22;8595;52.542;11.974;2023-04-01T02:53:42;10.00;99.90
16958;DHT22;8595;52.542;11.974;2023-04-01T02:56:10;10.00;99.90
16958;DHT22;8595;52.542;11.974;2023-04-01T02:58:37;9.90;99.90
16958;DHT22;8595;52.542;11.974;2023-04-01T03:01:03;9.90;99.90
16958;DHT22;8595;52.542;11.974;2023-04-01T03:03:31;9.90;99.90
16958;DHT22;8595;52.542;11.974;2023-04-01T03:05:57;9.90;99.90
16958;DHT22;8595;52.542;11.974;2023-04-01T03:08:25;9.90;99.90
16958;DHT22;8595;52.542;11.974;2023-04-01T03:10:52;9.90;99.90
16958;DHT22;8595;52.542;11.974;2023-04-01T03:13:20;9.90;99.90
16958;DHT22;8595;52.542;11.974;2023-04-01T03:15:48;9.90;99.90
16958;DHT22;8595;52.542;11.974;2023-04-01T03:18:14;9.90;99.90
16958;DHT22;8595;52.542;11.974;2023-04-01T03:20:41;9.90;99.90
16958;DHT22;8595;52.542;11.974;2023-04-01T03:23:08;9.90;99.90
16958;DHT22;8595;52.542;11.974;2023-04-01T03:25:34;10.00;99.90
16958;DHT22;8595;52.542;11.974;2023-04-01T03:28:01;9.90;99.90
16958;DHT22;8595;52.542;11.974;2023-04-01T03:30:29;10.00;99.90
16958;DHT22;8595;52.542;11.974;2023-04-01T03:32:56;10.10;99.90
16958;DHT22;8595;52.542;11.974;2023-04-01T03:35:23;10.10;99.90
16958;DHT22;8595;52.542;11.974;2023-04-01T03:37:50;10.10;99.90
16958;DHT22;8595;52.542;11.974;2023-04-01T03:40:17;10.10;99.90
16958;DHT22;8595;52.542;11.974;2023-04-01T03:42:44;10.10;99.90
16958;DHT22;8595;52.542;11.974;2023-04-01T03:45:11;10.10;99.90
16958;DHT22;8595;52.542;11.974;2023-04-01T03:47:39;10.00;99.90
16958;DHT22;8595;52.542;11.974;2023-04-01T03:50:07;10.10;99.90
16958;DHT22;8595;52.542;11.974;2023-04-01T03:52:34;10.10;99.90
16958;DHT22;8595;52.542;11.974;2023-04-01T03:55:01;10.10;99.90
16958;DHT22;8595;52.542;11.974;2023-04-01T03:57:27;10.10;99.90
16958;DHT22;8595;52.542;11.974;2023-04-01T03:59:54;10.10;99.90
16958;DHT22;8595;52.542;11.974;2023-04-01T04:02:21;10.10;99.90
16958;DHT22;8595;52.542;11.974;2023-04-01T04:04:49;10.20;99.90
16958;DHT22;8595;52.542;11.974;2023-04-01T04:07:16;10.10;99.90
16958;DHT22;8595;52.542;11.974;2023-04-01T04:09:42;10.20;99.90
16958;DHT22;8595;52.542;11.974;2023-04-01T04:12:09;10.10;99.90
16958;DHT22;8595;52.542;11.974;2023-04-01T04:14:36;10.10;99.90
16958;DHT22;8595;52.542;11.974;2023-04-01T04:17:03;10.20;99.90
16958;DHT22;8595;52.542;11.974;2023-04-01T04:19:32;10.30;99.90
16958;DHT22;8595;52.542;11.974;2023-04-01T04:22:01;10.30;99.90
16958;DHT22;8595;52.542;11.974;2023-04-01T04:24:27;10.30;99.90
16958;DHT22;8595;52.542;11.974;2023-04-01T04:26:54;10.30;99.90
16958;DHT22;8595;52.542;11.974;2023-04-01T04:29:21;10.20;99.90
16958;DHT22;8595;52.542;11.974;2023-04-01T04:31:48;10.20;99.90
16958;DHT22;8595;52.542;11.974;2023-04-01T04:34:14;10.20;99.90
16958;DHT22;8595;52.542;11.974;2023-04-01T04:36:41;10.20;99.90
16958;DHT22;8595;52.542;11.974;2023-04-01T04:39:09;10.20;99.90
16958;DHT22;8595;52.542;11.974;2023-04-01T04:41:37;10.20;99.90
16958;DHT22;8595;52.542;11.974;2023-04-01T04:44:05;10.10;99.90
16958;DHT22;8595;52.542;11.974;2023-04-01T04:46:32;10.10;99.90
16958;DHT22;8595;52.542;11.974;2023-04-01T04:48:59;10.10;99.90
16958;DHT22;8595;52.542;11.974;2023-04-01T04:51:27;10.00;99.90
16958;DHT22;8595;52.542;11.974;2023-04-01T04:53:54;10.10;99.90
16958;DHT22;8595;52.542;11.974;2023-04-01T04:56:22;10.10;99.90
16958;DHT22;8595;52.542;11.974;2023-04-01T04:58:50;10.10;99.90
16958;DHT22;8595;52.542;11.974;2023-04-01T05:01:17;10.00;99.90
16958;DHT22;8595;52.542;11.974;2023-04-01T05:03:44;10.00;99.90
16958;DHT22;8595;52.542;11.974;2023-04-01T05:06:13;10.00;99.90
16958;DHT22;8595;52.542;11.974;2023-04-01T05:08:41;10.10;99.90
16958;DHT22;8595;52.542;11.974;2023-04-01T05:11:11;10.10;99.90
16958;DHT22;8595;52.542;11.974;2023-04-01T05:13:39;10.10;99.90
16958;DHT22;8595;52.542;11.974;2023-04-01T05:16:08;10.10;99.90
16958;DHT22;8595;52.542;11.974;2023-04-01T05:18:35;10.10;99.90
16958;DHT22;8595;52.542;11.974;2023-04-01T05:21:02;10.10;99.90
16958;DHT22;8595;52.542;11.974;2023-04-01T05:23:30;10.20;99.90
16958;DHT22;8595;52.542;11.974;2023-04-01T05:25:57;10.10;99.90
16958;DHT22;8595;52.542;11.974;2023-04-01T05:28:24;10.10;99.90
16958;DHT22;8595;52.542;11.974;2023-04-01T05:30:52;10.10;99.90
16958;DHT22;8595;52.542;11.974;2023-04-01T05:33:19;10.10;99.90
16958;DHT22;8595;52.542;11.974;2023-04-01T05:35:46;10.10;99.90
16958;DHT22;8595;52.542;11.974;2023-04-01T05:38:12;10.10;99.90
16958;DHT22;8595;52.542;11.974;2023-04-01T05:40:39;10.20;99.90
16958;DHT22;8595;52.542;11.974;2023-04-01T05:43:06;10.10;99.90
16958;DHT22;8595;52.542;11.974;2023-04-01T05:45:33;10.00;99.90
16958;DHT22;8595;52.542;11.974;2023-04-01T05:48:02;10.00;99.90
16958;DHT22;8595;52.542;11.974;2023-04-01T05:50:28;10.00;99.90
16958;DHT22;8595;52.542;11.974;2023-04-01T05:52:55;10.10;99.90
16958;DHT22;8595;52.542;11.974;2023-04-01T05:55:22;10.10;99.90
16958;DHT22;8595;52.542;11.974;2023-04-01T05:57:48;10.20;99.90
16958;DHT22;8595;52.542;11.974;2023-04-01T06:00:16;10.20;99.90
16958;DHT22;8595;52.542;11.974;2023-04-01T06:02:45;10.20;99.90
16958;DHT22;8595;52.542;11.974;2023-04-01T06:05:17;10.30;99.90
16958;DHT22;8595;52.542;11.974;2023-04-01T06:07:44;10.30;99.90
16958;DHT22;8595;52.542;11.974;2023-04-01T06:10:15;10.30;99.90
16958;DHT22;8595;52.542;11.974;2023-04-01T06:12:52;10.30;99.90
16958;DHT22;8595;52.542;11.974;2023-04-01T06:15:33;10.40;99.90
16958;DHT22;8595;52.542;11.974;2023-04-01T06:21:11;10.40;99.90
16958;DHT22;8595;52.542;11.974;2023-04-01T06:23:53;10.30;99.90
16958;DHT22;8595;52.542;11.974;2023-04-01T06:26:28;10.30;99.90
16958;DHT22;8595;52.542;11.974;2023-04-01T06:29:15;10.30;99.90
16958;DHT22;8595;52.542;11.974;2023-04-01T06:32:08;10.40;99.90
16958;DHT22;8595;52.542;11.974;2023-04-01T06:38:04;10.30;99.90
16958;DHT22;8595;52.542;11.974;2023-04-01T06:40:58;10.30;99.90
16958;DHT22;8595;52.542;11.974;2023-04-01T06:43:36;10.30;99.90
16958;DHT22;8595;52.542;11.974;2023-04-01T06:46:11;10.20;99.90
16958;DHT22;8595;52.542;11.974;2023-04-01T06:48:58;10.20;99.90
16958;DHT22;8595;52.542;11.974;2023-04-01T06:51:34;10.20;99.90
16958;DHT22;8595;52.542;11.974;2023-04-01T06:54:10;10.30;99.90
16958;DHT22;8595;52.542;11.974;2023-04-01T06:56:41;10.30;99.90
16958;DHT22;8595;52.542;11.974;2023-04-01T06:59:12;10.40;99.90
16958;DHT22;8595;52.542;11.974;2023-04-01T07:01:44;10.40;99.90
16958;DHT22;8595;52.542;11.974;2023-04-01T07:04:14;10.60;99.90
16958;DHT22;8595;52.542;11.974;2023-04-01T07:06:47;10.60;99.90
16958;DHT22;8595;52.542;11.974;2023-04-01T07:09:19;10.60;99.90
16958;DHT22;8595;52.542;11.974;2023-04-01T07:11:46;10.60;99.90
16958;DHT22;8595;52.542;11.974;2023-04-01T07:14:18;10.80;99.90
16958;DHT22;8595;52.542;11.974;2023-04-01T07:16:48;10.70;99.90
16958;DHT22;8595;52.542;11.974;2023-04-01T07:19:22;10.80;99.90
16958;DHT22;8595;52.542;11.974;2023-04-01T07:21:55;10.80;99.90
16958;DHT22;8595;52.542;11.974;2023-04-01T07:24:27;10.80;99.90
16958;DHT22;8595;52.542;11.974;2023-04-01T07:26:56;10.90;99.90
16958;DHT22;8595;52.542;11.974;2023-04-01T07:29:23;10.90;99.90
16958;DHT22;8595;52.542;11.974;2023-04-01T07:32:14;11.10;99.90
16958;DHT22;8595;52.542;11.974;2023-04-01T07:34:52;11.20;99.90
16958;DHT22;8595;52.542;11.974;2023-04-01T07:37:27;11.30;99.90
16958;DHT22;8595;52.542;11.974;2023-04-01T07:40:05;11.30;99.90
16958;DHT22;8595;52.542;11.974;2023-04-01T07:42:44;11.30;99.90
16958;DHT22;8595;52.542;11.974;2023-04-01T07:45:19;11.50;99.90
16958;DHT22;8595;52.542;11.974;2023-04-01T07:48:08;11.50;99.90
16958;DHT22;8595;52.542;11.974;2023-04-01T07:50:40;11.50;99.90
16958;DHT22;8595;52.542;11.974;2023-04-01T07:53:19;11.50;99.90
16958;DHT22;8595;52.542;11.974;2023-04-01T07:55:52;11.60;99.90
16958;DHT22;8595;52.542;11.974;2023-04-01T07:58:27;11.60;99.90
16958;DHT22;8595;52.542;11.974;2023-04-01T08:00:59;11.60;99.90
16958;DHT22;8595;52.542;11.974;2023-04-01T08:03:43;11.70;99.90
16958;DHT22;8595;52.542;11.974;2023-04-01T08:06:16;11.70;99.90
16958;DHT22;8595;52.542;11.974;2023-04-01T08:08:57;11.70;99.90
16958;DHT22;8595;52.542;11.974;2023-04-01T08:11:39;11.90;99.90
16958;DHT22;8595;52.542;11.974;2023-04-01T08:14:14;12.00;99.90
16958;DHT22;8595;52.542;11.974;2023-04-01T08:16:51;12.10;99.90
16958;DHT22;8595;52.542;11.974;2023-04-01T08:19:31;12.20;99.90
16958;DHT22;8595;52.542;11.974;2023-04-01T08:22:09;12.30;99.90
16958;DHT22;8595;52.542;11.974;2023-04-01T08:24:41;12.20;99.90
16958;DHT22;8595;52.542;11.974;2023-04-01T08:27:16;12.20;99.90
16958;DHT22;8595;52.542;11.974;2023-04-01T08:29:48;12.20;99.90
16958;DHT22;8595;52.542;11.974;2023-04-01T08:32:20;12.20;99.90
16958;DHT22;8595;52.542;11.974;2023-04-01T08:34:54;12.20;99.90
16958;DHT22;8595;52.542;11.974;2023-04-01T08:37:25;12.20;99.90
16958;DHT22;8595;52.542;11.974;2023-04-01T08:39:55;12.30;99.90
16958;DHT22;8595;52.542;11.974;2023-04-01T08:42:48;12.30;99.90
16958;DHT22;8595;52.542;11.974;2023-04-01T08:45:28;12.30;99.90
16958;DHT22;8595;52.542;11.974;2023-04-01T08:48:19;12.60;99.90
16958;DHT22;8595;52.542;11.974;2023-04-01T08:51:10;12.80;99.90
16958;DHT22;8595;52.542;11.974;2023-04-01T08:54:02;13.40;99.90
16958;DHT22;8595;52.542;11.974;2023-04-01T08:56:36;14.20;99.90
16958;DHT22;8595;52.542;11.974;2023-04-01T08:59:23;15.30;99.90
16958;DHT22;8595;52.542;11.974;2023-04-01T09:02:19;16.70;99.90
16958;DHT22;8595;52.542;11.974;2023-04-01T09:05:26;18.00;99.90
16958;DHT22;8595;52.542;11.974;2023-04-01T09:08:05;18.80;99.90
16958;DHT22;8595;52.542;11.974;2023-04-01T09:10:59;18.30;99.90
16958;DHT22;8595;52.542;11.974;2023-04-01T09:13:51;17.80;99.90
16958;DHT22;8595;52.542;11.974;2023-04-01T09:16:42;17.20;99.90
16958;DHT22;8595;52.542;11.974;2023-04-01T09:19:19;16.50;99.90
16958;DHT22;8595;52.542;11.974;2023-04-01T09:22:08;16.30;99.90
16958;DHT22;8595;52.542;11.974;2023-04-01T09:24:43;16.20;99.90
16958;DHT22;8595;52.542;11.974;2023-04-01T09:27:22;16.20;99.90
16958;DHT22;8595;52.542;11.974;2023-04-01T09:33:24;15.80;99.90
16958;DHT22;8595;52.542;11.974;2023-04-01T09:36:04;15.50;99.90
16958;DHT22;8595;52.542;11.974;2023-04-01T09:38:40;15.30;99.90
16958;DHT22;8595;52.542;11.974;2023-04-01T09:41:21;15.20;99.90
16958;DHT22;8595;52.542;11.974;2023-04-01T09:44:02;15.20;99.90
16958;DHT22;8595;52.542;11.974;2023-04-01T09:46:43;15.20;99.90
16958;DHT22;8595;52.542;11.974;2023-04-01T09:52:20;15.10;99.90
16958;DHT22;8595;52.542;11.974;2023-04-01T10:01:51;14.60;99.90
16958;DHT22;8595;52.542;11.974;2023-04-01T10:04:51;14.40;99.90
16958;DHT22;8595;52.542;11.974;2023-04-01T10:07:40;14.30;99.90
16958;DHT22;8595;52.542;11.974;2023-04-01T10:10:42;14.10;99.90
16958;DHT22;8595;52.542;11.974;2023-04-01T10:16:46;13.80;99.90
16958;DHT22;8595;52.542;11.974;2023-04-01T10:22:48;13.00;99.90
16958;DHT22;8595;52.542;11.974;2023-04-01T10:25:44;12.40;99.90
16958;DHT22;8595;52.542;11.974;2023-04-01T10:31:52;12.10;99.90
16958;DHT22;8595;52.542;11.974;2023-04-01T10:34:50;12.00;99.90
16958;DHT22;8595;52.542;11.974;2023-04-01T10:37:50;11.70;99.90
16958;DHT22;8595;52.542;11.974;2023-04-01T10:40:38;11.60;99.90
16958;DHT22;8595;52.542;11.974;2023-04-01T10:43:52;11.60;99.90
16958;DHT22;8595;52.542;11.974;2023-04-01T10:52:53;11.50;99.90
16958;DHT22;8595;52.542;11.974;2023-04-01T10:55:43;11.50;99.90
16958;DHT22;8595;52.542;11.974;2023-04-01T10:58:38;11.50;99.90
16958;DHT22;8595;52.542;11.974;2023-04-01T11:01:27;11.60;99.90
16958;DHT22;8595;52.542;11.974;2023-04-01T11:04:37;11.50;99.90
16958;DHT22;8595;52.542;11.974;2023-04-01T11:11:00;11.60;99.90
16958;DHT22;8595;52.542;11.974;2023-04-01T11:14:07;11.70;99.90
16958;DHT22;8595;52.542;11.974;2023-04-01T11:17:06;11.70;99.90
16958;DHT22;8595;52.542;11.974;2023-04-01T11:22:58;11.80;99.90
16958;DHT22;8595;52.542;11.974;2023-04-01T11:25:41;11.80;99.90
16958;DHT22;8595;52.542;11.974;2023-04-01T11:28:42;11.80;99.90
16958;DHT22;8595;52.542;11.974;2023-04-01T11:31:21;11.80;99.90
16958;DHT22;8595;52.542;11.974;2023-04-01T11:33:54;11.80;99.90
16958;DHT22;8595;52.542;11.974;2023-04-01T11:36:32;11.60;99.90
16958;DHT22;8595;52.542;11.974;2023-04-01T11:39:21;11.60;99.90
16958;DHT22;8595;52.542;11.974;2023-04-01T11:41:56;11.60;99.90
16958;DHT22;8595;52.542;11.974;2023-04-01T11:44:29;11.40;99.90
16958;DHT22;8595;52.542;11.974;2023-04-01T11:47:09;11.30;99.90
16958;DHT22;8595;52.542;11.974;2023-04-01T11:49:44;11.30;99.90
16958;DHT22;8595;52.542;11.974;2023-04-01T11:52:24;11.30;99.90
16958;DHT22;8595;52.542;11.974;2023-04-01T11:55:15;11.40;99.90
16958;DHT22;8595;52.542;11.974;2023-04-01T11:58:05;11.30;99.90
16958;DHT22;8595;52.542;11.974;2023-04-01T12:01:03;11.20;99.90
16958;DHT22;8595;52.542;11.974;2023-04-01T12:03:54;11.00;99.90
16958;DHT22;8595;52.542;11.974;2023-04-01T12:06:29;11.10;99.90
16958;DHT22;8595;52.542;11.974;2023-04-01T12:09:03;11.10;99.90
16958;DHT22;8595;52.542;11.974;2023-04-01T12:11:36;11.00;99.90
16958;DHT22;8595;52.542;11.974;2023-04-01T12:14:11;11.00;99.90
16958;DHT22;8595;52.542;11.974;2023-04-01T12:16:55;10.90;99.90
16958;DHT22;8595;52.542;11.974;2023-04-01T12:19:29;10.80;99.90
16958;DHT22;8595;52.542;11.974;2023-04-01T12:22:14;10.70;99.90
16958;DHT22;8595;52.542;11.974;2023-04-01T12:24:47;10.70;99.90
16958;DHT22;8595;52.542;11.974;2023-04-01T12:27:37;10.50;99.90
16958;DHT22;8595;52.542;11.974;2023-04-01T12:30:28;10.50;99.90
16958;DHT22;8595;52.542;11.974;2023-04-01T12:33:06;10.60;99.90
16958;DHT22;8595;52.542;11.974;2023-04-01T12:35:46;10.50;99.90
16958;DHT22;8595;52.542;11.974;2023-04-01T12:38:28;10.60;99.90
16958;DHT22;8595;52.542;11.974;2023-04-01T12:41:09;10.60;99.90
16958;DHT22;8595;52.542;11.974;2023-04-01T12:44:08;10.50;99.90
16958;DHT22;8595;52.542;11.974;2023-04-01T12:46:54;10.60;99.90
16958;DHT22;8595;52.542;11.974;2023-04-01T12:49:39;10.60;99.90
16958;DHT22;8595;52.542;11.974;2023-04-01T12:52:12;10.70;99.90
16958;DHT22;8595;52.542;11.974;2023-04-01T12:55:25;10.60;99.90
16958;DHT22;8595;52.542;11.974;2023-04-01T12:58:08;10.60;99.90
16958;DHT22;8595;52.542;11.974;2023-04-01T13:00:54;10.70;99.90
16958;DHT22;8595;52.542;11.974;2023-04-01T13:03:48;10.70;99.90
16958;DHT22;8595;52.542;11.974;2023-04-01T13:06:27;10.30;99.90
16958;DHT22;8595;52.542;11.974;2023-04-01T13:09:01;10.30;99.90
16958;DHT22;8595;52.542;11.974;2023-04-01T13:11:42;10.30;99.90
16958;DHT22;8595;52.542;11.974;2023-04-01T13:17:12;10.20;99.90
16958;DHT22;8595;52.542;11.974;2023-04-01T13:19:49;10.10;99.90
16958;DHT22;8595;52.542;11.974;2023-04-01T13:22:23;10.20;99.90
16958;DHT22;8595;52.542;11.974;2023-04-01T13:24:57;10.20;99.90
16958;DHT22;8595;52.542;11.974;2023-04-01T13:27:30;10.30;99.90
16958;DHT22;8595;52.542;11.974;2023-04-01T13:30:11;10.20;99.90
16958;DHT22;8595;52.542;11.974;2023-04-01T13:32:46;10.20;99.90
16958;DHT22;8595;52.542;11.974;2023-04-01T13:35:23;10.30;99.90
16958;DHT22;8595;52.542;11.974;2023-04-01T13:38:04;10.20;99.90
16958;DHT22;8595;52.542;11.974;2023-04-01T13:40:49;10.20;99.90
16958;DHT22;8595;52.542;11.974;2023-04-01T13:43:20;10.10;99.90
16958;DHT22;8595;52.542;11.974;2023-04-01T13:46:17;10.10;99.90
16958;DHT22;8595;52.542;11.974;2023-04-01T13:49:11;10.00;99.90
16958;DHT22;8595;52.542;11.974;2023-04-01T13:51:54;10.00;99.90
16958;DHT22;8595;52.542;11.974;2023-04-01T13:57:43;9.80;99.90
16958;DHT22;8595;52.542;11.974;2023-04-01T14:00:25;9.70;99.90
16958;DHT22;8595;52.542;11.974;2023-04-01T14:03:13;9.70;99.90
16958;DHT22;8595;52.542;11.974;2023-04-01T14:05:50;9.50;99.90
16958;DHT22;8595;52.542;11.974;2023-04-01T14:08:29;9.50;99.90
16958;DHT22;8595;52.542;11.974;2023-04-01T14:11:10;9.50;99.90
16958;DHT22;8595;52.542;11.974;2023-04-01T14:13:47;9.70;99.90
16958;DHT22;8595;52.542;11.974;2023-04-01T14:16:40;9.70;99.90
16958;DHT22;8595;52.542;11.974;2023-04-01T14:19:18;9.70;99.90
16958;DHT22;8595;52.542;11.974;2023-04-01T14:21:55;9.70;99.90
16958;DHT22;8595;52.542;11.974;2023-04-01T14:24:42;9.60;99.90
16958;DHT22;8595;52.542;11.974;2023-04-01T14:27:39;9.60;99.90
16958;DHT22;8595;52.542;11.974;2023-04-01T14:30:20;9.70;99.90
16958;DHT22;8595;52.542;11.974;2023-04-01T14:32:58;9.70;99.90
16958;DHT22;8595;52.542;11.974;2023-04-01T14:35:36;9.60;99.90
16958;DHT22;8595;52.542;11.974;2023-04-01T14:38:31;9.50;99.90
16958;DHT22;8595;52.542;11.974;2023-04-01T14:41:11;9.40;99.90
16958;DHT22;8595;52.542;11.974;2023-04-01T14:43:48;9.40;99.90
16958;DHT22;8595;52.542;11.974;2023-04-01T14:46:51;9.30;99.90
16958;DHT22;8595;52.542;11.974;2023-04-01T14:49:29;9.40;99.90
16958;DHT22;8595;52.542;11.974;2023-04-01T14:52:05;9.20;99.90
16958;DHT22;8595;52.542;11.974;2023-04-01T14:54:37;9.10;99.90
16958;DHT22;8595;52.542;11.974;2023-04-01T14:57:11;9.20;99.90
16958;DHT22;8595;52.542;11.974;2023-04-01T14:59:45;9.30;99.90
16958;DHT22;8595;52.542;11.974;2023-04-01T15:02:26;9.10;99.90
16958;DHT22;8595;52.542;11.974;2023-04-01T15:05:04;9.00;99.90
16958;DHT22;8595;52.542;11.974;2023-04-01T15:11:12;9.00;99.90
16958;DHT22;8595;52.542;11.974;2023-04-01T15:13:52;9.00;99.90
16958;DHT22;8595;52.542;11.974;2023-04-01T15:16:27;9.10;99.90
16958;DHT22;8595;52.542;11.974;2023-04-01T15:19:07;8.90;99.90
16958;DHT22;8595;52.542;11.974;2023-04-01T15:21:52;8.90;99.90
16958;DHT22;8595;52.542;11.974;2023-04-01T15:24:24;8.80;99.90
16958;DHT22;8595;52.542;11.974;2023-04-01T15:27:20;8.90;99.90
16958;DHT22;8595;52.542;11.974;2023-04-01T15:30:14;8.90;99.90
16958;DHT22;8595;52.542;11.974;2023-04-01T15:32:54;8.80;99.90
16958;DHT22;8595;52.542;11.974;2023-04-01T15:35:34;8.80;99.90
16958;DHT22;8595;52.542;11.974;2023-04-01T15:38:08;8.70;99.90
16958;DHT22;8595;52.542;11.974;2023-04-01T15:40:43;8.50;99.90
16958;DHT22;8595;52.542;11.974;2023-04-01T15:43:24;8.50;99.90
16958;DHT22;8595;52.542;11.974;2023-04-01T15:45:58;8.40;99.90
16958;DHT22;8595;52.542;11.974;2023-04-01T15:48:49;8.50;99.90
16958;DHT22;8595;52.542;11.974;2023-04-01T15:54:37;8.50;99.90
16958;DHT22;8595;52.542;11.974;2023-04-01T15:57:25;8.40;99.90
16958;DHT22;8595;52.542;11.974;2023-04-01T16:00:04;8.40;99.90
16958;DHT22;8595;52.542;11.974;2023-04-01T16:02:36;8.40;99.90
16958;DHT22;8595;52.542;11.974;2023-04-01T16:05:13;8.40;99.90
16958;DHT22;8595;52.542;11.974;2023-04-01T16:08:18;8.30;99.90
16958;DHT22;8595;52.542;11.974;2023-04-01T16:10:58;8.20;99.90
16958;DHT22;8595;52.542;11.974;2023-04-01T16:13:46;8.20;99.90
16958;DHT22;8595;52.542;11.974;2023-04-01T16:16:23;8.20;99.90
16958;DHT22;8595;52.542;11.974;2023-04-01T16:19:27;8.20;99.90
16958;DHT22;8595;52.542;11.974;2023-04-01T16:22:02;8.10;99.90
16958;DHT22;8595;52.542;11.974;2023-04-01T16:24:35;8.10;99.90
16958;DHT22;8595;52.542;11.974;2023-04-01T16:27:10;8.10;99.90
16958;DHT22;8595;52.542;11.974;2023-04-01T16:29:45;8.00;99.90
16958;DHT22;8595;52.542;11.974;2023-04-01T16:32:18;8.00;99.90
16958;DHT22;8595;52.542;11.974;2023-04-01T16:34:56;8.00;99.90
16958;DHT22;8595;52.542;11.974;2023-04-01T16:37:32;7.90;99.90
16958;DHT22;8595;52.542;11.974;2023-04-01T16:40:11;7.80;99.90
16958;DHT22;8595;52.542;11.974;2023-04-01T16:42:46;8.00;99.90
16958;DHT22;8595;52.542;11.974;2023-04-01T16:45:21;8.10;99.90
16958;DHT22;8595;52.542;11.974;2023-04-01T16:47:53;8.10;99.90
16958;DHT22;8595;52.542;11.974;2023-04-01T16:50:22;7.90;99.90
16958;DHT22;8595;52.542;11.974;2023-04-01T16:53:08;7.80;99.90
16958;DHT22;8595;52.542;11.974;2023-04-01T16:55:45;7.70;99.90
16958;DHT22;8595;52.542;11.974;2023-04-01T16:58:18;7.60;99.90
16958;DHT22;8595;52.542;11.974;2023-04-01T17:00:49;7.60;99.90
16958;DHT22;8595;52.542;11.974;2023-04-01T17:03:21;7.70;99.90
16958;DHT22;8595;52.542;11.974;2023-04-01T17:06:00;7.60;99.90
16958;DHT22;8595;52.542;11.974;2023-04-01T17:08:41;7.60;99.90
16958;DHT22;8595;52.542;11.974;2023-04-01T17:11:17;7.50;99.90
16958;DHT22;8595;52.542;11.974;2023-04-01T17:13:50;7.60;99.90
16958;DHT22;8595;52.542;11.974;2023-04-01T17:19:35;7.60;99.90
16958;DHT22;8595;52.542;11.974;2023-04-01T17:22:11;7.70;99.90
16958;DHT22;8595;52.542;11.974;2023-04-01T17:24:51;7.70;99.90
16958;DHT22;8595;52.542;11.974;2023-04-01T17:27:32;7.70;99.90
16958;DHT22;8595;52.542;11.974;2023-04-01T17:30:24;7.70;99.90
16958;DHT22;8595;52.542;11.974;2023-04-01T17:35:57;7.50;99.90